createdAt,value
2018-01-25T00:01:14.835Z,3.25
2018-01-25T00:06:19.349Z,3.30
2018-01-25T00:08:48.384Z,3.32
2018-01-25T00:11:18.362Z,3.38
2018-01-25T00:13:47.397Z,3.53
2018-01-25T00:16:16.449Z,3.60
2018-01-25T00:21:20.693Z,3.68
2018-01-25T00:23:49.757Z,3.55
2018-01-25T00:26:18.781Z,3.37
2018-01-25T00:28:47.967Z,3.34
2018-01-25T00:31:17.008Z,3.23
2018-01-25T00:33:46.037Z,3.12
2018-01-25T00:36:15.074Z,2.91
2018-01-25T00:38:44.104Z,2.84
2018-01-25T00:41:13.241Z,2.91
2018-01-25T00:43:42.366Z,3.25
2018-01-25T00:46:12.369Z,3.54
2018-01-25T00:48:41.409Z,3.67
2018-01-25T00:51:10.460Z,3.86
2018-01-25T00:53:39.514Z,4.11
2018-01-25T00:56:08.543Z,4.27
2018-01-25T00:58:37.682Z,4.37
2018-01-25T01:01:06.685Z,4.27
2018-01-25T01:03:35.737Z,4.19
2018-01-25T01:06:04.774Z,4.05
2018-01-25T01:11:09.037Z,3.93
2018-01-25T01:13:43.362Z,3.75
2018-01-25T01:16:12.444Z,3.55
2018-01-25T01:18:41.507Z,3.53
2018-01-25T01:21:10.545Z,3.48
2018-01-25T01:23:39.590Z,3.58
2018-01-25T01:26:08.686Z,3.41
2018-01-25T01:28:37.680Z,3.27
2018-01-25T01:31:06.730Z,3.17
2018-01-25T01:33:35.757Z,3.13
2018-01-25T01:36:04.784Z,3.13
2018-01-25T01:38:34.740Z,3.09
2018-01-25T01:41:03.756Z,3.22
2018-01-25T01:43:32.801Z,3.53
2018-01-25T01:46:01.821Z,3.53
2018-01-25T01:48:30.861Z,3.51
2018-01-25T01:51:03.795Z,3.61
2018-01-25T01:53:32.815Z,3.52
2018-01-25T01:58:37.585Z,3.77
2018-01-25T02:01:06.621Z,3.84
2018-01-25T02:03:36.565Z,3.64
2018-01-25T02:06:05.608Z,3.49
2018-01-25T02:08:34.638Z,3.30
2018-01-25T02:11:03.679Z,3.18
2018-01-25T02:13:32.698Z,2.94
2018-01-25T02:16:06.009Z,2.70
2018-01-25T02:18:35.053Z,2.57
2018-01-25T02:21:04.074Z,2.41
2018-01-25T02:23:33.135Z,2.56
2018-01-25T02:26:02.240Z,2.66
2018-01-25T02:28:31.295Z,2.69
2018-01-25T02:31:00.315Z,2.92
2018-01-25T02:33:29.371Z,2.97
2018-01-25T02:35:58.385Z,2.91
2018-01-25T02:38:31.352Z,2.96
2018-01-25T02:41:00.378Z,2.89
2018-01-25T02:43:29.409Z,2.73
2018-01-25T02:45:58.434Z,2.76
2018-01-25T02:48:30.913Z,2.79
2018-01-25T02:50:59.918Z,2.88
2018-01-25T02:56:04.691Z,2.87
2018-01-25T03:01:08.954Z,2.95
2018-01-25T03:03:37.974Z,2.96
2018-01-25T03:06:07.004Z,2.99
2018-01-25T03:08:36.045Z,3.19
2018-01-25T03:11:05.094Z,3.35
2018-01-25T03:16:09.367Z,3.55
2018-01-25T03:18:38.392Z,3.56
2018-01-25T03:21:07.432Z,3.59
2018-01-25T03:26:11.719Z,3.50
2018-01-25T03:28:40.778Z,3.47
2018-01-25T03:31:09.808Z,3.36
2018-01-25T03:33:38.830Z,3.34
2018-01-25T03:36:07.873Z,3.39
2018-01-25T03:38:36.919Z,3.44
2018-01-25T03:41:05.960Z,3.50
2018-01-25T03:43:34.997Z,3.57
2018-01-25T03:46:04.090Z,3.62
2018-01-25T03:48:33.125Z,3.59
2018-01-25T03:51:02.162Z,3.53
2018-01-25T03:53:31.203Z,3.54
2018-01-25T03:56:00.253Z,3.31
2018-01-25T04:01:04.553Z,3.36
2018-01-25T04:03:33.590Z,3.43
2018-01-25T04:06:02.616Z,3.46
2018-01-25T04:08:31.641Z,3.69
2018-01-25T04:11:00.676Z,3.84
2018-01-25T04:16:05.874Z,4.07
2018-01-25T04:18:34.900Z,4.17
2018-01-25T04:21:05.992Z,4.17
2018-01-25T04:23:35.030Z,4.26
2018-01-25T04:26:04.280Z,4.25
2018-01-25T04:28:35.608Z,4.11
2018-01-25T04:31:06.426Z,3.98
2018-01-25T04:36:11.165Z,3.96
2018-01-25T04:38:40.185Z,4.04
2018-01-25T04:41:09.548Z,4.09
2018-01-25T04:43:38.612Z,4.16
2018-01-25T04:46:07.642Z,4.13
2018-01-25T04:48:36.668Z,4.22
2018-01-25T04:51:05.706Z,4.14
2018-01-25T04:53:34.744Z,4.09
2018-01-25T04:56:03.827Z,4.16
2018-01-25T04:58:32.822Z,4.26
2018-01-25T05:01:01.880Z,4.41
2018-01-25T05:03:30.921Z,4.43
2018-01-25T05:05:59.958Z,4.45
2018-01-25T05:08:28.980Z,4.53
2018-01-25T05:10:58.019Z,4.55
2018-01-25T05:13:27.047Z,4.51
2018-01-25T05:15:56.070Z,4.37
2018-01-25T05:18:25.115Z,4.21
2018-01-25T05:23:29.380Z,4.13
2018-01-25T05:25:58.408Z,4.04
2018-01-25T05:28:28.340Z,3.93
2018-01-25T05:30:57.465Z,3.85
2018-01-25T05:36:01.752Z,3.73
2018-01-25T05:38:30.795Z,3.39
2018-01-25T05:43:35.557Z,3.17
2018-01-25T05:46:04.609Z,3.29
2018-01-25T05:48:33.646Z,3.37
2018-01-25T05:53:38.418Z,3.69
2018-01-25T05:56:07.453Z,3.79
2018-01-25T05:58:36.507Z,3.85
2018-01-25T06:01:05.544Z,3.83
2018-01-25T06:03:34.568Z,3.78
2018-01-25T06:08:38.870Z,3.51
2018-01-25T06:11:07.913Z,3.04
2018-01-25T06:13:36.984Z,2.77
2018-01-25T06:16:06.952Z,2.71
2018-01-25T06:18:36.019Z,2.43
2018-01-25T06:21:05.041Z,2.28
2018-01-25T06:23:34.069Z,2.38
2018-01-25T06:26:03.115Z,2.39
2018-01-25T06:28:32.141Z,2.70
2018-01-25T06:31:01.170Z,2.93
2018-01-25T06:33:30.200Z,2.91
2018-01-25T06:35:59.225Z,2.83
2018-01-25T06:38:28.261Z,2.72
2018-01-25T06:40:57.391Z,2.71
2018-01-25T06:43:26.437Z,2.77
2018-01-25T06:45:55.501Z,2.77
2018-01-25T06:48:24.510Z,2.87
2018-01-25T06:50:53.587Z,2.78
2018-01-25T06:53:22.624Z,2.76
2018-01-25T06:55:51.662Z,2.73
2018-01-25T06:58:20.693Z,2.70
2018-01-25T07:00:49.724Z,2.77
2018-01-25T07:03:18.751Z,2.81
2018-01-25T07:05:47.817Z,2.83
2018-01-25T07:08:16.821Z,2.91
2018-01-25T07:10:45.865Z,3.03
2018-01-25T07:13:14.911Z,2.98
2018-01-25T07:15:43.933Z,2.99
2018-01-25T07:18:13.012Z,3.09
2018-01-25T07:20:42.042Z,3.19
2018-01-25T07:23:11.081Z,3.29
2018-01-25T07:25:40.110Z,3.35
2018-01-25T07:28:09.173Z,3.48
2018-01-25T07:30:38.189Z,3.40
2018-01-25T07:35:42.478Z,3.43
2018-01-25T07:38:11.486Z,3.54
2018-01-25T07:40:40.561Z,3.67
2018-01-25T07:43:09.598Z,3.79
2018-01-25T07:45:38.622Z,4.00
2018-01-25T07:48:07.656Z,4.16
2018-01-25T07:50:38.209Z,4.47
2018-01-25T07:53:07.277Z,4.71
2018-01-25T07:55:36.305Z,4.79
2018-01-25T07:58:19.586Z,4.96
2018-01-25T08:00:48.600Z,5.01
2018-01-25T08:03:17.764Z,5.06
2018-01-25T08:05:46.817Z,5.16
2018-01-25T08:08:16.732Z,5.19
2018-01-25T08:10:47.138Z,5.29
2018-01-25T08:13:23.342Z,5.34
2018-01-25T08:15:53.879Z,5.36
2018-01-25T08:18:22.938Z,5.43
2018-01-25T08:20:51.960Z,5.47
2018-01-25T08:23:21.009Z,5.54
2018-01-25T08:25:50.045Z,5.72
2018-01-25T08:28:19.077Z,5.87
2018-01-25T08:30:48.115Z,5.91
2018-01-25T08:33:17.155Z,6.00
2018-01-25T08:35:46.188Z,6.15
2018-01-25T08:38:15.222Z,6.31
2018-01-25T08:40:44.525Z,6.54
2018-01-25T08:43:13.611Z,6.63
2018-01-25T08:49:32.255Z,7.10
2018-01-25T08:52:01.281Z,7.26
2018-01-25T08:54:30.316Z,7.39
2018-01-25T08:56:59.415Z,7.54
2018-01-25T09:02:03.608Z,8.15
2018-01-25T09:04:32.642Z,8.31
2018-01-25T09:07:01.680Z,8.45
2018-01-25T09:09:37.716Z,9.36
2018-01-25T09:12:06.744Z,10.95
2018-01-25T09:14:35.789Z,12.49
2018-01-25T09:17:04.833Z,13.97
2018-01-25T09:19:33.873Z,15.51
2018-01-25T09:22:02.907Z,16.94
2018-01-25T09:24:31.957Z,17.59
2018-01-25T09:27:01.024Z,18.23
2018-01-25T09:29:30.041Z,18.59
2018-01-25T09:31:59.089Z,18.98
2018-01-25T09:34:28.120Z,19.83
2018-01-25T09:39:32.609Z,21.77
2018-01-25T09:42:01.661Z,22.13
2018-01-25T09:47:05.972Z,22.88
2018-01-25T09:49:35.985Z,23.60
2018-01-25T09:52:05.025Z,24.56
2018-01-25T09:54:35.347Z,25.09
2018-01-25T09:57:04.361Z,25.06
2018-01-25T09:59:33.401Z,24.12
2018-01-25T10:02:02.461Z,24.54
2018-01-25T10:07:06.895Z,25.90
2018-01-25T10:12:13.642Z,25.11
2018-01-25T10:14:42.702Z,24.85
2018-01-25T10:17:11.747Z,23.01
2018-01-25T10:19:40.793Z,22.67
2018-01-25T10:24:45.144Z,25.10
2018-01-25T10:27:14.185Z,24.59
2018-01-25T10:32:18.495Z,23.39
2018-01-25T10:34:47.555Z,22.61
2018-01-25T10:37:16.597Z,23.86
2018-01-25T10:39:45.633Z,23.94
2018-01-25T10:42:14.764Z,24.78
2018-01-25T10:44:43.743Z,25.30
2018-01-25T10:47:12.782Z,23.87
2018-01-25T10:49:41.826Z,23.74
2018-01-25T10:54:46.134Z,23.91
2018-01-25T10:57:15.223Z,23.96
2018-01-25T10:59:44.286Z,23.16
2018-01-25T11:04:48.649Z,22.06
2018-01-25T11:07:17.681Z,21.34
2018-01-25T11:09:46.744Z,21.45
2018-01-25T11:14:51.485Z,24.04
2018-01-25T11:17:20.519Z,23.50
2018-01-25T11:19:49.549Z,22.68
2018-01-25T11:22:18.603Z,22.42
2018-01-25T11:24:47.658Z,22.41
2018-01-25T11:27:16.713Z,22.14
2018-01-25T11:29:45.749Z,22.81
2018-01-25T11:32:14.800Z,22.95
2018-01-25T11:34:43.859Z,23.41
2018-01-25T11:37:12.921Z,23.61
2018-01-25T11:39:42.234Z,22.66
2018-01-25T11:42:11.351Z,23.75
2018-01-25T11:44:40.401Z,24.11
2018-01-25T11:47:09.504Z,24.63
2018-01-25T11:49:38.497Z,23.66
2018-01-25T11:52:07.570Z,22.26
2018-01-25T11:54:37.116Z,21.70
2018-01-25T11:57:06.159Z,21.12
2018-01-25T11:59:36.342Z,21.95
2018-01-25T12:02:05.398Z,20.80
2018-01-25T12:04:35.430Z,20.39
2018-01-25T12:09:39.695Z,19.85
2018-01-25T12:12:08.780Z,18.98
2018-01-25T12:17:13.018Z,19.02
2018-01-25T12:19:42.056Z,19.36
2018-01-25T12:22:11.097Z,19.43
2018-01-25T12:24:40.491Z,20.05
2018-01-25T12:27:09.530Z,20.38
2018-01-25T12:29:39.543Z,20.45
2018-01-25T12:34:43.874Z,19.99
2018-01-25T12:37:13.060Z,19.00
2018-01-25T12:39:42.106Z,18.43
2018-01-25T12:42:11.141Z,18.36
2018-01-25T12:47:16.372Z,18.44
2018-01-25T12:49:45.403Z,18.86
2018-01-25T12:52:14.450Z,19.27
2018-01-25T12:58:15.207Z,18.68
2018-01-25T13:00:44.264Z,18.75
2018-01-25T13:03:13.336Z,18.82
2018-01-25T13:05:42.353Z,18.40
2018-01-25T13:10:46.702Z,18.66
2018-01-25T13:15:51.036Z,18.69
2018-01-25T13:20:56.321Z,18.96
2018-01-25T13:23:25.358Z,18.78
2018-01-25T13:28:29.629Z,18.73
2018-01-25T13:30:58.669Z,18.50
2018-01-25T13:36:05.961Z,18.38
2018-01-25T13:38:35.743Z,17.98
2018-01-25T13:41:05.327Z,17.75
2018-01-25T13:43:35.187Z,17.51
2018-01-25T13:46:04.249Z,17.36
2018-01-25T13:51:08.540Z,17.26
2018-01-25T13:53:37.558Z,17.21
2018-01-25T13:56:06.630Z,16.70
2018-01-25T13:58:36.574Z,16.72
2018-01-25T14:01:05.657Z,16.62
2018-01-25T14:03:35.334Z,16.03
2018-01-25T14:06:04.392Z,15.67
2018-01-25T14:08:34.386Z,15.37
2018-01-25T14:11:03.429Z,15.30
2018-01-25T14:13:32.664Z,15.11
2018-01-25T14:16:01.674Z,15.05
2018-01-25T14:21:05.998Z,15.06
2018-01-25T14:23:37.239Z,14.85
2018-01-25T14:26:06.329Z,14.38
2018-01-25T14:31:11.581Z,14.32
2018-01-25T14:33:40.619Z,14.33
2018-01-25T14:36:09.658Z,13.94
2018-01-25T14:38:38.697Z,13.77
2018-01-25T14:41:07.753Z,13.83
2018-01-25T14:43:36.953Z,13.49
2018-01-25T14:46:06.009Z,13.52
2018-01-25T14:48:36.297Z,13.54
2018-01-25T14:51:05.335Z,13.19
2018-01-25T14:53:38.626Z,12.97
2018-01-25T14:56:11.626Z,12.78
2018-01-25T14:58:44.464Z,12.63
2018-01-25T15:01:17.778Z,12.49
2018-01-25T15:03:51.108Z,12.35
2018-01-25T15:06:24.432Z,12.01
2018-01-25T15:11:28.642Z,11.92
2018-01-25T15:13:57.698Z,11.70
2018-01-25T15:16:26.729Z,11.29
2018-01-25T15:18:55.801Z,10.97
2018-01-25T15:21:24.840Z,10.82
2018-01-25T15:23:53.986Z,10.65
2018-01-25T15:26:24.520Z,10.44
2018-01-25T15:28:53.956Z,10.41
2018-01-25T15:31:22.944Z,10.16
2018-01-25T15:33:51.981Z,9.96
2018-01-25T15:36:21.027Z,9.87
2018-01-25T15:38:50.076Z,9.76
2018-01-25T15:41:19.117Z,9.65
2018-01-25T15:43:48.152Z,9.52
2018-01-25T15:48:52.469Z,9.38
2018-01-25T15:51:21.453Z,9.16
2018-01-25T15:53:50.571Z,9.01
2018-01-25T15:56:19.557Z,8.88
2018-01-25T15:58:48.628Z,9.03
2018-01-25T16:01:17.649Z,8.82
2018-01-25T16:03:46.696Z,8.57
2018-01-25T16:06:15.757Z,8.37
2018-01-25T16:08:53.242Z,8.22
2018-01-25T16:11:22.655Z,8.06
2018-01-25T16:13:57.321Z,7.97
2018-01-25T16:16:26.333Z,7.88
2018-01-25T16:18:55.381Z,7.81
2018-01-25T16:21:24.425Z,7.75
2018-01-25T16:23:53.445Z,7.72
2018-01-25T16:26:25.621Z,7.67
2018-01-25T16:28:54.641Z,7.63
2018-01-25T16:31:24.583Z,7.60
2018-01-25T16:33:53.601Z,7.45
2018-01-25T16:36:22.655Z,7.23
2018-01-25T16:38:51.708Z,7.14
2018-01-25T16:41:20.732Z,7.02
2018-01-25T16:43:49.766Z,6.89
2018-01-25T16:46:23.396Z,6.77
2018-01-25T16:48:55.916Z,6.66
2018-01-25T16:51:28.958Z,6.55
2018-01-25T16:54:01.369Z,6.48
2018-01-25T16:56:34.751Z,6.41
2018-01-25T17:01:43.187Z,6.44
2018-01-25T17:06:47.385Z,6.27
2018-01-25T17:09:16.413Z,6.28
2018-01-25T17:11:45.453Z,6.22
2018-01-25T17:14:14.496Z,6.05
2018-01-25T17:19:19.408Z,5.88
2018-01-25T17:21:48.612Z,5.71
2018-01-25T17:24:17.683Z,5.60
2018-01-25T17:26:46.716Z,5.59
2018-01-25T17:29:15.753Z,5.63
2018-01-25T17:31:44.810Z,5.61
2018-01-25T17:34:13.842Z,5.58
2018-01-25T17:36:42.897Z,5.50
2018-01-25T17:39:11.924Z,5.40
2018-01-25T17:41:40.956Z,5.40
2018-01-25T17:44:10.017Z,5.35
2018-01-25T17:46:39.063Z,5.32
2018-01-25T17:49:08.091Z,5.24
2018-01-25T17:51:37.116Z,5.19
2018-01-25T17:54:06.145Z,5.18
2018-01-25T17:56:36.130Z,5.21
2018-01-25T17:59:05.178Z,5.21
2018-01-25T18:01:35.324Z,5.19
2018-01-25T18:04:04.341Z,5.18
2018-01-25T18:06:34.751Z,5.31
2018-01-25T18:09:03.748Z,5.31
2018-01-25T18:11:32.947Z,5.41
2018-01-25T18:14:06.563Z,5.32
2018-01-25T18:19:11.768Z,5.33
2018-01-25T18:21:40.830Z,5.41
2018-01-25T18:24:09.869Z,5.32
2018-01-25T18:26:38.919Z,5.28
2018-01-25T18:29:07.970Z,5.40
2018-01-25T18:31:37.015Z,5.56
2018-01-25T18:34:06.053Z,5.65
2018-01-25T18:39:10.671Z,5.65
2018-01-25T18:41:39.698Z,5.52
2018-01-25T18:46:44.883Z,5.49
2018-01-25T18:51:49.078Z,5.45
2018-01-25T18:54:18.142Z,5.36
2018-01-25T18:59:22.417Z,5.52
2018-01-25T19:01:51.463Z,5.59
2018-01-25T19:04:20.490Z,5.47
2018-01-25T19:06:50.436Z,5.41
2018-01-25T19:09:19.467Z,5.39
2018-01-25T19:11:48.513Z,5.46
2018-01-25T19:14:17.554Z,5.46
2018-01-25T19:16:46.617Z,5.49
2018-01-25T19:19:15.665Z,5.51
2018-01-25T19:21:44.697Z,5.49
2018-01-25T19:24:13.861Z,5.53
2018-01-25T19:26:43.051Z,5.61
2018-01-25T19:29:12.296Z,5.55
2018-01-25T19:31:41.326Z,5.42
2018-01-25T19:34:10.476Z,5.28
2018-01-25T19:36:39.526Z,5.15
2018-01-25T19:39:08.573Z,5.09
2018-01-25T19:41:37.629Z,5.03
2018-01-25T19:44:07.502Z,5.14
2018-01-25T19:46:36.590Z,5.09
2018-01-25T19:49:05.610Z,5.07
2018-01-25T19:51:34.667Z,5.04
2018-01-25T19:54:05.553Z,4.93
2018-01-25T19:56:36.944Z,4.85
2018-01-25T19:59:06.160Z,4.80
2018-01-25T20:01:35.191Z,4.80
2018-01-25T20:06:41.684Z,5.00
2018-01-25T20:09:10.712Z,5.13
2018-01-25T20:11:39.749Z,5.08
2018-01-25T20:14:08.785Z,5.18
2018-01-25T20:16:37.813Z,5.14
2018-01-25T20:19:06.842Z,5.01
2018-01-25T20:21:35.882Z,4.95
2018-01-25T20:24:04.910Z,4.90
2018-01-25T20:26:33.975Z,4.83
2018-01-25T20:31:38.253Z,4.82
2018-01-25T20:34:07.292Z,4.72
2018-01-25T20:36:36.321Z,4.70
2018-01-25T20:39:05.783Z,4.79
2018-01-25T20:41:34.781Z,4.66
2018-01-25T20:44:03.814Z,4.50
2018-01-25T20:46:32.849Z,4.55
2018-01-25T20:49:01.911Z,4.66
2018-01-25T20:51:30.949Z,4.77
2018-01-25T20:53:59.989Z,4.79
2018-01-25T20:56:29.041Z,4.75
2018-01-25T20:58:58.061Z,4.87
2018-01-25T21:01:27.833Z,4.96
2018-01-25T21:03:56.846Z,4.87
2018-01-25T21:06:25.873Z,4.83
2018-01-25T21:08:54.905Z,4.80
2018-01-25T21:11:23.974Z,4.85
2018-01-25T21:13:53.018Z,4.77
2018-01-25T21:16:22.479Z,4.72
2018-01-25T21:18:51.530Z,4.65
2018-01-25T21:21:21.221Z,4.66
2018-01-25T21:26:25.518Z,4.71
2018-01-25T21:28:54.690Z,4.68
2018-01-25T21:31:23.714Z,4.63
2018-01-25T21:33:52.849Z,4.62
2018-01-25T21:36:21.887Z,4.63
2018-01-25T21:38:50.927Z,4.60
2018-01-25T21:41:20.842Z,4.54
2018-01-25T21:46:25.933Z,4.30
2018-01-25T21:48:55.116Z,4.08
2018-01-25T21:51:24.134Z,3.93
2018-01-25T21:53:53.165Z,3.95
2018-01-25T21:56:27.481Z,4.05
2018-01-25T21:59:02.628Z,4.07
2018-01-25T22:01:36.502Z,4.14
2018-01-25T22:06:43.474Z,4.25
2018-01-25T22:09:12.555Z,4.18
2018-01-25T22:11:41.675Z,4.29
2018-01-25T22:16:46.445Z,4.48
2018-01-25T22:19:15.485Z,4.51
2018-01-25T22:21:44.521Z,4.32
2018-01-25T22:24:13.552Z,4.20
2018-01-25T22:26:42.713Z,4.15
2018-01-25T22:29:11.793Z,4.21
2018-01-25T22:31:40.765Z,4.28
2018-01-25T22:34:10.024Z,4.31
2018-01-25T22:36:39.048Z,4.29
2018-01-25T22:39:08.238Z,4.44
2018-01-25T22:41:37.273Z,4.50
2018-01-25T22:44:06.296Z,4.59
2018-01-25T22:46:39.394Z,4.60
2018-01-25T22:49:08.392Z,4.61
2018-01-25T22:51:37.429Z,4.67
2018-01-25T22:54:06.469Z,4.60
2018-01-25T22:56:35.534Z,4.44
2018-01-25T22:59:04.564Z,4.44
2018-01-25T23:01:33.588Z,4.50
2018-01-25T23:04:02.634Z,4.66
2018-01-25T23:06:31.661Z,4.85
2018-01-25T23:09:00.741Z,4.92
2018-01-25T23:11:29.725Z,4.91
2018-01-25T23:13:58.757Z,4.98
2018-01-25T23:16:27.806Z,5.09
2018-01-25T23:18:56.837Z,4.96
2018-01-25T23:21:25.861Z,4.97
2018-01-25T23:23:54.886Z,4.97
2018-01-25T23:26:24.020Z,4.95
2018-01-25T23:28:53.070Z,5.06
2018-01-25T23:31:22.071Z,4.90
2018-01-25T23:33:51.101Z,4.90
2018-01-25T23:36:20.143Z,4.97
2018-01-25T23:38:49.168Z,4.92
2018-01-25T23:41:18.212Z,4.85
2018-01-25T23:43:47.254Z,4.93
2018-01-25T23:46:16.292Z,4.83
2018-01-25T23:51:20.556Z,4.85
2018-01-25T23:53:49.601Z,4.97
2018-01-25T23:56:18.632Z,4.93
2018-01-25T23:58:47.677Z,4.98
